createdAt,value
2022-12-25T00:02:22.934Z,4.92
2022-12-25T00:04:50.962Z,4.92
2022-12-25T00:07:19.222Z,4.93
2022-12-25T00:09:47.115Z,4.93
2022-12-25T00:12:15.118Z,4.93
2022-12-25T00:14:43.320Z,4.92
2022-12-25T00:17:11.200Z,4.92
2022-12-25T00:19:39.191Z,4.90
2022-12-25T00:22:07.398Z,4.87
2022-12-25T00:24:35.726Z,4.83
2022-12-25T00:27:03.950Z,4.81
2022-12-25T00:29:31.981Z,4.82
2022-12-25T00:32:00.263Z,4.81
2022-12-25T00:34:28.360Z,4.82
2022-12-25T00:36:56.437Z,4.80
2022-12-25T00:39:24.684Z,4.78
2022-12-25T00:42:11.852Z,4.74
2022-12-25T00:44:39.894Z,4.72
2022-12-25T00:47:08.048Z,4.69
2022-12-25T00:49:36.028Z,4.65
2022-12-25T00:52:04.275Z,4.56
2022-12-25T00:54:32.378Z,4.51
2022-12-25T00:57:00.724Z,4.50
2022-12-25T00:59:32.609Z,4.49
2022-12-25T01:02:21.423Z,4.45
2022-12-25T01:04:51.497Z,4.38
2022-12-25T01:07:20.107Z,4.34
2022-12-25T01:10:07.541Z,4.32
2022-12-25T01:12:38.434Z,4.30
2022-12-25T01:15:08.437Z,4.25
2022-12-25T01:17:36.531Z,4.24
2022-12-25T01:20:05.422Z,4.22
2022-12-25T01:22:33.704Z,4.22
2022-12-25T01:25:01.692Z,4.23
2022-12-25T01:27:29.627Z,4.25
2022-12-25T01:29:57.561Z,4.27
2022-12-25T01:32:25.593Z,4.30
2022-12-25T01:34:56.047Z,4.33
2022-12-25T01:37:25.279Z,4.32
2022-12-25T01:39:53.355Z,4.29
2022-12-25T01:42:23.887Z,4.27
2022-12-25T01:44:51.755Z,4.23
2022-12-25T01:47:19.728Z,4.20
2022-12-25T01:49:50.915Z,4.17
2022-12-25T01:52:24.732Z,4.13
2022-12-25T01:54:57.742Z,4.10
2022-12-25T01:57:30.741Z,4.11
2022-12-25T02:00:00.276Z,4.09
2022-12-25T02:02:29.681Z,4.07
2022-12-25T02:05:04.356Z,4.06
2022-12-25T02:07:35.154Z,4.07
2022-12-25T02:10:04.340Z,4.04
2022-12-25T02:12:35.710Z,4.04
2022-12-25T02:15:10.907Z,4.06
2022-12-25T02:17:44.924Z,4.06
2022-12-25T02:20:47.163Z,4.03
2022-12-25T02:23:34.869Z,4.04
2022-12-25T02:26:03.609Z,4.06
2022-12-25T02:28:45.443Z,4.07
2022-12-25T02:31:19.093Z,4.06
2022-12-25T02:34:05.040Z,4.04
2022-12-25T02:36:57.563Z,4.02
2022-12-25T02:39:58.506Z,3.99
2022-12-25T02:42:55.956Z,3.97
2022-12-25T02:46:07.154Z,3.96
2022-12-25T02:49:00.435Z,3.96
2022-12-25T02:51:51.753Z,3.99
2022-12-25T02:54:45.242Z,4.03
2022-12-25T02:57:35.586Z,4.02
2022-12-25T03:00:23.707Z,4.03
2022-12-25T03:03:11.400Z,4.02
2022-12-25T03:06:01.014Z,4.02
2022-12-25T03:08:42.989Z,4.03
2022-12-25T03:11:31.160Z,4.03
2022-12-25T03:14:22.182Z,4.03
2022-12-25T03:16:55.641Z,4.04
2022-12-25T03:19:47.535Z,4.06
2022-12-25T03:22:44.189Z,4.10
2022-12-25T03:25:31.979Z,4.09
2022-12-25T03:28:00.648Z,4.10
2022-12-25T03:31:12.362Z,4.11
2022-12-25T03:34:36.832Z,4.13
2022-12-25T03:37:13.679Z,4.13
2022-12-25T03:39:59.077Z,4.18
2022-12-25T03:42:49.445Z,4.22
2022-12-25T03:46:04.963Z,4.23
2022-12-25T03:48:55.147Z,4.24
2022-12-25T03:51:48.981Z,4.25
2022-12-25T03:54:42.501Z,4.25
2022-12-25T03:57:29.954Z,4.26
2022-12-25T04:00:16.113Z,4.27
2022-12-25T04:03:02.481Z,4.27
2022-12-25T04:05:49.053Z,4.25
2022-12-25T04:08:35.706Z,4.24
2022-12-25T04:11:22.257Z,4.22
2022-12-25T04:14:09.113Z,4.21
2022-12-25T04:16:55.742Z,4.19
2022-12-25T04:19:42.160Z,4.16
2022-12-25T04:22:28.416Z,4.12
2022-12-25T04:25:15.363Z,4.05
2022-12-25T04:28:01.683Z,3.98
2022-12-25T04:30:48.465Z,3.84
2022-12-25T04:33:35.077Z,3.74
2022-12-25T04:36:12.635Z,3.73
2022-12-25T04:38:41.978Z,3.74
2022-12-25T04:41:11.754Z,3.71
2022-12-25T04:43:40.050Z,3.67
2022-12-25T04:46:08.268Z,3.66
2022-12-25T04:48:37.070Z,3.65
2022-12-25T04:51:13.857Z,3.65
2022-12-25T04:53:42.951Z,3.66
2022-12-25T04:56:11.555Z,3.65
2022-12-25T04:58:39.902Z,3.64
2022-12-25T05:01:08.952Z,3.63
2022-12-25T05:03:37.744Z,3.61
2022-12-25T05:06:06.686Z,3.61
2022-12-25T05:08:35.466Z,3.61
2022-12-25T05:11:12.040Z,3.58
2022-12-25T05:13:40.272Z,3.57
2022-12-25T05:16:12.276Z,3.54
2022-12-25T05:18:40.601Z,3.51
2022-12-25T05:21:11.387Z,3.47
2022-12-25T05:23:39.522Z,3.44
2022-12-25T05:26:08.037Z,3.42
2022-12-25T05:28:36.084Z,3.35
2022-12-25T05:31:04.117Z,3.34
2022-12-25T05:33:32.127Z,3.35
2022-12-25T05:36:04.910Z,3.36
2022-12-25T05:38:33.101Z,3.38
2022-12-25T05:41:01.150Z,3.39
2022-12-25T05:43:29.534Z,3.42
2022-12-25T05:45:57.492Z,3.43
2022-12-25T05:48:25.386Z,3.44
2022-12-25T05:50:53.616Z,3.44
2022-12-25T05:53:21.589Z,3.43
2022-12-25T05:55:49.735Z,3.43
2022-12-25T05:58:17.624Z,3.42
2022-12-25T06:00:48.512Z,3.46
2022-12-25T06:03:16.660Z,3.49
2022-12-25T06:05:44.621Z,3.50
2022-12-25T06:08:12.607Z,3.52
2022-12-25T06:10:40.857Z,3.55
2022-12-25T06:13:08.858Z,3.56
2022-12-25T06:15:41.729Z,3.56
2022-12-25T06:18:10.296Z,3.57
2022-12-25T06:20:41.501Z,3.60
2022-12-25T06:23:09.822Z,3.64
2022-12-25T06:25:41.064Z,3.69
2022-12-25T06:28:09.304Z,3.71
2022-12-25T06:30:37.230Z,3.70
2022-12-25T06:33:05.543Z,3.65
2022-12-25T06:35:33.799Z,3.63
2022-12-25T06:38:01.617Z,3.59
2022-12-25T06:40:29.718Z,3.56
2022-12-25T06:42:57.921Z,3.52
2022-12-25T06:45:26.362Z,3.50
2022-12-25T06:47:54.337Z,3.49
2022-12-25T06:50:22.269Z,3.52
2022-12-25T06:52:50.199Z,3.56
2022-12-25T06:55:18.326Z,3.60
2022-12-25T06:57:46.323Z,3.66
2022-12-25T07:00:14.671Z,3.74
2022-12-25T07:02:47.577Z,3.82
2022-12-25T07:05:15.951Z,3.90
2022-12-25T07:07:43.889Z,3.96
2022-12-25T07:10:12.385Z,4.02
2022-12-25T07:12:40.345Z,4.07
2022-12-25T07:15:09.217Z,4.10
2022-12-25T07:17:37.406Z,4.16
2022-12-25T07:20:07.070Z,4.23
2022-12-25T07:22:35.322Z,4.30
2022-12-25T07:25:03.214Z,4.37
2022-12-25T07:27:31.171Z,4.42
2022-12-25T07:29:59.160Z,4.48
2022-12-25T07:32:30.867Z,4.53
2022-12-25T07:34:59.224Z,4.56
2022-12-25T07:37:27.276Z,4.60
2022-12-25T07:39:55.392Z,4.64
2022-12-25T07:42:25.484Z,4.67
2022-12-25T07:44:55.966Z,4.72
2022-12-25T07:47:24.161Z,4.76
2022-12-25T07:49:52.328Z,4.78
2022-12-25T07:52:20.651Z,4.83
2022-12-25T07:54:48.813Z,4.89
2022-12-25T07:57:18.113Z,4.91
2022-12-25T07:59:50.549Z,4.95
2022-12-25T08:02:19.175Z,4.99
2022-12-25T08:04:47.586Z,5.01
2022-12-25T08:07:15.698Z,5.05
2022-12-25T08:09:43.663Z,5.11
2022-12-25T08:12:11.714Z,5.16
2022-12-25T08:14:40.065Z,5.17
2022-12-25T08:17:08.334Z,5.18
2022-12-25T08:19:36.621Z,5.22
2022-12-25T08:22:04.967Z,5.27
2022-12-25T08:24:33.223Z,5.32
2022-12-25T08:27:01.344Z,5.36
2022-12-25T08:29:29.550Z,5.41
2022-12-25T08:31:57.490Z,5.47
2022-12-25T08:34:26.509Z,5.54
2022-12-25T08:36:54.666Z,5.61
2022-12-25T08:39:22.791Z,5.68
2022-12-25T08:41:50.767Z,5.75
2022-12-25T08:44:19.404Z,5.81
2022-12-25T08:46:47.618Z,5.87
2022-12-25T08:49:16.551Z,5.93
2022-12-25T08:51:45.709Z,5.98
2022-12-25T08:54:13.921Z,6.02
2022-12-25T08:56:41.936Z,6.09
2022-12-25T08:59:09.901Z,6.15
2022-12-25T09:01:38.230Z,6.20
2022-12-25T09:04:06.266Z,6.26
2022-12-25T09:06:34.291Z,6.32
2022-12-25T09:09:02.418Z,6.38
2022-12-25T09:11:30.488Z,6.44
2022-12-25T09:13:58.589Z,6.52
2022-12-25T09:16:26.811Z,6.62
2022-12-25T09:18:56.995Z,6.70
2022-12-25T09:21:25.033Z,6.77
2022-12-25T09:23:52.937Z,6.83
2022-12-25T09:26:20.932Z,6.90
2022-12-25T09:28:52.294Z,6.96
2022-12-25T09:31:22.348Z,7.04
2022-12-25T09:33:51.503Z,7.10
2022-12-25T09:36:23.247Z,7.11
2022-12-25T09:38:52.206Z,7.16
2022-12-25T09:41:31.824Z,7.22
2022-12-25T09:44:15.134Z,7.28
2022-12-25T09:47:14.514Z,7.29
2022-12-25T09:49:57.220Z,7.30
2022-12-25T09:52:42.736Z,7.33
2022-12-25T09:55:21.241Z,7.37
2022-12-25T09:57:56.696Z,7.40
2022-12-25T10:00:35.175Z,7.46
2022-12-25T10:03:13.474Z,7.51
2022-12-25T10:06:08.171Z,7.57
2022-12-25T10:08:57.944Z,7.64
2022-12-25T10:11:44.275Z,7.72
2022-12-25T10:14:26.811Z,7.77
2022-12-25T10:17:26.423Z,7.83
2022-12-25T10:20:37.544Z,7.87
2022-12-25T10:23:14.913Z,7.92
2022-12-25T10:25:44.425Z,7.96
2022-12-25T10:28:16.896Z,7.98
2022-12-25T10:30:45.466Z,7.98
2022-12-25T10:33:17.054Z,8.01
2022-12-25T10:35:46.236Z,8.04
2022-12-25T10:38:20.108Z,8.08
2022-12-25T10:40:57.293Z,8.14
2022-12-25T10:43:32.708Z,8.17
2022-12-25T10:46:00.948Z,8.19
2022-12-25T10:48:30.684Z,8.23
2022-12-25T10:50:59.313Z,8.26
2022-12-25T10:53:29.293Z,8.32
2022-12-25T10:56:03.670Z,8.39
2022-12-25T10:58:33.273Z,8.43
2022-12-25T11:01:05.072Z,8.47
2022-12-25T11:03:38.173Z,8.55
2022-12-25T11:06:20.529Z,8.59
2022-12-25T11:08:54.207Z,8.61
2022-12-25T11:11:22.732Z,8.64
2022-12-25T11:13:57.022Z,8.66
2022-12-25T11:16:30.473Z,8.69
2022-12-25T11:19:00.150Z,8.73
2022-12-25T11:21:35.081Z,8.78
2022-12-25T11:24:17.694Z,8.83
2022-12-25T11:26:52.286Z,8.89
2022-12-25T11:29:50.691Z,8.96
2022-12-25T11:32:31.672Z,9.01
2022-12-25T11:35:01.150Z,9.05
2022-12-25T11:37:46.260Z,9.06
2022-12-25T11:40:20.588Z,9.06
2022-12-25T11:43:21.951Z,9.06
2022-12-25T11:46:07.422Z,9.02
2022-12-25T11:48:44.780Z,9.01
2022-12-25T11:51:15.043Z,9.04
2022-12-25T11:53:46.433Z,9.06
2022-12-25T11:56:26.285Z,9.04
2022-12-25T11:59:00.515Z,9.02
2022-12-25T12:01:37.692Z,9.04
2022-12-25T12:04:27.455Z,9.07
2022-12-25T12:07:00.748Z,9.11
2022-12-25T12:10:01.018Z,9.12
2022-12-25T12:12:48.260Z,9.15
2022-12-25T12:15:27.524Z,9.16
2022-12-25T12:17:56.394Z,9.17
2022-12-25T12:20:29.625Z,9.16
2022-12-25T12:23:00.142Z,9.16
2022-12-25T12:25:29.748Z,9.15
2022-12-25T12:28:05.203Z,9.16
2022-12-25T12:30:35.881Z,9.19
2022-12-25T12:33:07.145Z,9.20
2022-12-25T12:35:38.844Z,9.20
2022-12-25T12:38:14.784Z,9.26
2022-12-25T12:40:52.564Z,9.33
2022-12-25T12:43:32.533Z,9.36
2022-12-25T12:46:16.751Z,9.36
2022-12-25T12:48:49.084Z,9.33
2022-12-25T12:51:29.291Z,9.28
2022-12-25T12:54:22.561Z,9.21
2022-12-25T12:57:06.618Z,9.14
2022-12-25T12:59:43.688Z,9.08
2022-12-25T13:02:54.285Z,9.07
2022-12-25T13:05:41.529Z,9.04
2022-12-25T13:08:30.922Z,9.01
2022-12-25T13:11:17.786Z,8.97
2022-12-25T13:13:48.678Z,8.96
2022-12-25T13:16:23.397Z,8.97
2022-12-25T13:18:53.641Z,8.98
2022-12-25T13:21:27.462Z,8.96
2022-12-25T13:24:07.489Z,8.90
2022-12-25T13:26:35.575Z,8.84
2022-12-25T13:29:09.478Z,8.81
2022-12-25T13:31:40.730Z,8.83
2022-12-25T13:34:32.095Z,8.84
2022-12-25T13:37:08.380Z,8.84
2022-12-25T13:39:39.475Z,8.86
2022-12-25T13:42:10.079Z,8.86
2022-12-25T13:44:42.858Z,8.86
2022-12-25T13:47:33.955Z,8.86
2022-12-25T13:50:21.024Z,8.85
2022-12-25T13:52:50.598Z,8.82
2022-12-25T13:55:26.780Z,8.80
2022-12-25T13:57:56.062Z,8.78
2022-12-25T14:00:32.334Z,8.80
2022-12-25T14:03:00.798Z,8.79
2022-12-25T14:05:42.755Z,8.87
2022-12-25T14:08:16.129Z,8.98
2022-12-25T14:10:49.709Z,9.50
2022-12-25T14:13:21.207Z,9.68
2022-12-25T14:15:49.646Z,9.55
2022-12-25T14:18:19.889Z,9.40
2022-12-25T14:21:01.760Z,9.21
2022-12-25T14:23:39.495Z,9.03
2022-12-25T14:26:07.905Z,8.93
2022-12-25T14:28:38.046Z,8.87
2022-12-25T14:31:06.273Z,8.78
2022-12-25T14:33:39.228Z,8.74
2022-12-25T14:36:07.926Z,8.73
2022-12-25T14:38:36.232Z,8.72
2022-12-25T14:41:33.683Z,8.70
2022-12-25T14:44:04.189Z,8.65
2022-12-25T14:46:34.137Z,8.59
2022-12-25T14:49:05.466Z,8.53
2022-12-25T14:51:38.927Z,8.47
2022-12-25T14:54:19.003Z,8.41
2022-12-25T14:56:48.957Z,8.34
2022-12-25T14:59:20.744Z,8.27
2022-12-25T15:02:03.418Z,8.22
2022-12-25T15:04:32.043Z,8.17
2022-12-25T15:07:07.306Z,8.11
2022-12-25T15:09:36.241Z,8.04
2022-12-25T15:12:04.792Z,7.98
2022-12-25T15:14:36.391Z,7.92
2022-12-25T15:17:04.575Z,7.85
2022-12-25T15:19:38.651Z,7.80
2022-12-25T15:22:07.315Z,7.73
2022-12-25T15:24:35.421Z,7.68
2022-12-25T15:27:05.630Z,7.66
2022-12-25T15:32:24.349Z,7.56
2022-12-25T15:34:54.142Z,7.51
2022-12-25T15:37:22.104Z,7.46
2022-12-25T15:39:50.692Z,7.43
2022-12-25T15:42:22.994Z,7.56
2022-12-25T15:44:52.047Z,7.86
2022-12-25T15:47:20.606Z,7.85
2022-12-25T15:49:49.351Z,7.78
2022-12-25T15:52:17.838Z,7.68
2022-12-25T15:54:46.273Z,7.58
2022-12-25T15:57:18.524Z,7.49
2022-12-25T15:59:47.028Z,7.40
2022-12-25T16:02:18.835Z,7.32
2022-12-25T16:04:47.481Z,7.28
2022-12-25T16:07:18.292Z,7.22
2022-12-25T16:09:46.522Z,7.16
2022-12-25T16:12:14.648Z,7.08
2022-12-25T16:14:42.823Z,7.03
2022-12-25T16:17:14.300Z,6.97
2022-12-25T16:19:45.065Z,6.89
2022-12-25T16:22:28.780Z,6.83
2022-12-25T16:24:56.728Z,6.80
2022-12-25T16:27:25.370Z,6.75
2022-12-25T16:29:53.587Z,6.71
2022-12-25T16:32:21.814Z,6.69
2022-12-25T16:34:49.932Z,6.66
2022-12-25T16:37:18.382Z,6.62
2022-12-25T16:39:46.579Z,6.57
2022-12-25T16:42:14.468Z,6.52
2022-12-25T16:44:42.469Z,6.48
2022-12-25T16:47:10.650Z,6.43
2022-12-25T16:49:38.940Z,6.39
2022-12-25T16:52:07.300Z,6.36
2022-12-25T16:54:35.366Z,6.29
2022-12-25T16:57:03.408Z,6.26
2022-12-25T16:59:31.751Z,6.24
2022-12-25T17:01:59.816Z,6.23
2022-12-25T17:04:28.310Z,6.23
2022-12-25T17:06:56.607Z,6.23
2022-12-25T17:09:25.443Z,6.23
2022-12-25T17:11:53.455Z,6.22
2022-12-25T17:14:21.610Z,6.21
2022-12-25T17:16:49.717Z,6.18
2022-12-25T17:19:19.785Z,6.16
2022-12-25T17:21:48.002Z,6.13
2022-12-25T17:24:16.251Z,6.09
2022-12-25T17:26:45.370Z,6.05
2022-12-25T17:29:18.698Z,6.07
2022-12-25T17:31:49.666Z,6.08
2022-12-25T17:34:17.591Z,6.09
2022-12-25T17:36:45.461Z,6.08
2022-12-25T17:39:13.597Z,6.07
2022-12-25T17:41:41.621Z,6.04
2022-12-25T17:44:10.254Z,6.00
2022-12-25T17:46:38.808Z,5.96
2022-12-25T17:49:07.003Z,5.92
2022-12-25T17:51:35.373Z,5.90
2022-12-25T17:54:03.449Z,5.88
2022-12-25T17:56:32.459Z,5.87
2022-12-25T17:59:06.836Z,5.85
2022-12-25T18:01:38.608Z,5.84
2022-12-25T18:04:07.361Z,5.89
2022-12-25T18:06:36.723Z,5.90
2022-12-25T18:09:06.640Z,5.89
2022-12-25T18:11:39.619Z,5.85
2022-12-25T18:14:10.245Z,5.79
2022-12-25T18:16:40.303Z,5.73
2022-12-25T18:19:09.480Z,5.68
2022-12-25T18:21:37.678Z,5.62
2022-12-25T18:24:07.157Z,5.58
2022-12-25T18:26:35.811Z,5.57
2022-12-25T18:29:04.307Z,5.55
2022-12-25T18:31:32.494Z,5.55
2022-12-25T18:34:00.699Z,5.54
2022-12-25T18:36:29.988Z,5.50
2022-12-25T18:38:58.858Z,5.46
2022-12-25T18:41:29.065Z,5.43
2022-12-25T18:44:00.177Z,5.39
2022-12-25T18:46:28.807Z,5.33
2022-12-25T18:48:57.475Z,5.27
2022-12-25T18:51:29.969Z,5.24
2022-12-25T18:54:03.234Z,5.20
2022-12-25T18:56:31.437Z,5.14
2022-12-25T18:59:00.710Z,5.09
2022-12-25T19:01:29.140Z,5.02
2022-12-25T19:04:04.603Z,4.96
2022-12-25T19:06:34.011Z,4.91
2022-12-25T19:09:09.431Z,4.86
2022-12-25T19:11:46.176Z,4.79
2022-12-25T19:14:15.233Z,4.72
2022-12-25T19:16:43.692Z,4.68
2022-12-25T19:19:12.144Z,4.63
2022-12-25T19:21:40.559Z,4.60
2022-12-25T19:24:08.535Z,4.59
2022-12-25T19:26:37.710Z,4.60
2022-12-25T19:29:05.983Z,4.59
2022-12-25T19:31:34.030Z,4.59
2022-12-25T19:34:02.241Z,4.58
2022-12-25T19:36:31.387Z,4.55
2022-12-25T19:38:59.563Z,4.50
2022-12-25T19:41:27.574Z,4.45
2022-12-25T19:43:55.693Z,4.41
2022-12-25T19:46:27.166Z,4.38
2022-12-25T19:48:56.379Z,4.37
2022-12-25T19:51:27.347Z,4.36
2022-12-25T19:53:56.356Z,4.36
2022-12-25T19:56:26.163Z,4.38
2022-12-25T19:58:54.926Z,4.40
2022-12-25T20:01:25.721Z,4.41
2022-12-25T20:03:54.445Z,4.42
2022-12-25T20:06:27.171Z,4.43
2022-12-25T20:08:58.144Z,4.46
2022-12-25T20:11:27.916Z,4.49
2022-12-25T20:13:56.532Z,4.51
2022-12-25T20:16:26.104Z,4.52
2022-12-25T20:18:54.236Z,4.55
2022-12-25T20:21:23.138Z,4.58
2022-12-25T20:23:52.719Z,4.56
2022-12-25T20:26:23.819Z,4.55
2022-12-25T20:28:52.872Z,4.54
2022-12-25T20:31:27.849Z,4.56
2022-12-25T20:34:06.490Z,4.59
2022-12-25T20:36:37.547Z,4.58
2022-12-25T20:39:09.435Z,4.58
2022-12-25T20:41:40.734Z,4.57
2022-12-25T20:44:10.320Z,4.56
2022-12-25T20:46:39.058Z,4.57
2022-12-25T20:49:07.282Z,4.56
2022-12-25T20:51:35.471Z,4.56
2022-12-25T20:54:07.714Z,4.58
2022-12-25T20:56:36.661Z,4.62
2022-12-25T20:59:04.687Z,4.69
2022-12-25T21:01:33.075Z,4.75
2022-12-25T21:04:01.262Z,4.81
2022-12-25T21:06:29.308Z,4.87
2022-12-25T21:08:57.839Z,4.91
2022-12-25T21:11:26.640Z,4.96
2022-12-25T21:13:54.850Z,4.99
2022-12-25T21:16:24.077Z,5.00
2022-12-25T21:18:53.923Z,5.02
2022-12-25T21:21:22.327Z,5.02
2022-12-25T21:23:50.981Z,5.01
2022-12-25T21:26:25.189Z,5.01
2022-12-25T21:28:56.362Z,5.00
2022-12-25T21:31:24.971Z,4.98
2022-12-25T21:33:55.111Z,4.98
2022-12-25T21:36:33.813Z,4.98
2022-12-25T21:39:04.859Z,5.01
2022-12-25T21:41:35.852Z,5.03
2022-12-25T21:44:05.064Z,5.04
2022-12-25T21:46:34.399Z,5.04
2022-12-25T21:49:02.806Z,5.05
2022-12-25T21:51:51.387Z,5.08
2022-12-25T21:54:21.716Z,5.09
2022-12-25T21:56:50.384Z,5.09
2022-12-25T21:59:21.328Z,5.08
2022-12-25T22:01:51.882Z,5.07
2022-12-25T22:04:21.704Z,5.05
2022-12-25T22:07:08.799Z,5.03
2022-12-25T22:09:37.588Z,5.00
2022-12-25T22:12:28.531Z,4.98
2022-12-25T22:15:05.570Z,5.02
2022-12-25T22:18:01.189Z,5.03
2022-12-25T22:20:37.231Z,5.05
2022-12-25T22:23:05.511Z,5.05
2022-12-25T22:25:33.448Z,5.06
2022-12-25T22:28:01.806Z,5.06
2022-12-25T22:30:30.479Z,5.05
2022-12-25T22:32:58.490Z,5.04
2022-12-25T22:35:26.738Z,5.03
2022-12-25T22:37:54.868Z,5.06
2022-12-25T22:40:22.982Z,5.08
2022-12-25T22:42:54.817Z,5.07
2022-12-25T22:45:24.081Z,5.08
2022-12-25T22:47:52.395Z,5.09
2022-12-25T22:50:20.360Z,5.09
2022-12-25T22:52:48.351Z,5.09
2022-12-25T22:55:18.406Z,5.11
2022-12-25T22:57:46.431Z,5.14
2022-12-25T23:00:14.494Z,5.16
2022-12-25T23:02:42.924Z,5.16
2022-12-25T23:05:11.331Z,5.17
2022-12-25T23:07:39.575Z,5.18
2022-12-25T23:10:09.016Z,5.21
2022-12-25T23:12:55.642Z,5.23
2022-12-25T23:15:24.154Z,5.26
2022-12-25T23:18:10.658Z,5.28
2022-12-25T23:20:57.785Z,5.29
2022-12-25T23:23:44.140Z,5.30
2022-12-25T23:26:13.799Z,5.30
2022-12-25T23:29:01.873Z,5.30
2022-12-25T23:31:33.736Z,5.31
2022-12-25T23:34:02.633Z,5.32
2022-12-25T23:36:31.629Z,5.31
2022-12-25T23:39:06.860Z,5.30
2022-12-25T23:41:42.204Z,5.30
2022-12-25T23:44:11.774Z,5.28
2022-12-25T23:46:40.901Z,5.30
2022-12-25T23:49:10.213Z,5.32
2022-12-25T23:51:44.640Z,5.33
2022-12-25T23:54:16.046Z,5.35
2022-12-25T23:56:44.633Z,5.38
2022-12-25T23:59:13.570Z,5.44
